sensor_id;sensor_type;location;lat;lon;timestamp;pressure;altitude;pressure_sealevel;temperature;humidity
6506;BME280;3286;49.858;8.768;2023-05-12T00:01:47;98947.81;;;15.21;60.83
6506;BME280;3286;49.858;8.768;2023-05-12T00:04:13;98955.25;;;15.26;60.47
6506;BME280;3286;49.858;8.768;2023-05-12T00:06:40;98951.81;;;15.10;61.45
6506;BME280;3286;49.858;8.768;2023-05-12T00:09:06;98954.28;;;14.82;61.44
6506;BME280;3286;49.858;8.768;2023-05-12T00:11:35;98949.81;;;14.97;60.97
6506;BME280;3286;49.858;8.768;2023-05-12T00:14:02;98952.34;;;15.20;60.47
6506;BME280;3286;49.858;8.768;2023-05-12T00:16:28;98954.25;;;15.12;61.16
6506;BME280;3286;49.858;8.768;2023-05-12T00:18:55;98946.50;;;14.95;61.56
6506;BME280;3286;49.858;8.768;2023-05-12T00:21:21;98954.47;;;15.10;61.25
6506;BME280;3286;49.858;8.768;2023-05-12T00:23:48;98949.88;;;14.89;62.11
6506;BME280;3286;49.858;8.768;2023-05-12T00:26:15;98951.59;;;15.12;61.44
6506;BME280;3286;49.858;8.768;2023-05-12T00:28:43;98948.03;;;15.04;61.86
6506;BME280;3286;49.858;8.768;2023-05-12T00:31:11;98944.28;;;14.84;62.87
6506;BME280;3286;49.858;8.768;2023-05-12T00:33:38;98947.16;;;14.82;62.33
6506;BME280;3286;49.858;8.768;2023-05-12T00:36:06;98944.13;;;14.85;62.89
6506;BME280;3286;49.858;8.768;2023-05-12T00:38:33;98945.41;;;14.89;62.40
6506;BME280;3286;49.858;8.768;2023-05-12T00:41:01;98938.50;;;15.10;61.61
6506;BME280;3286;49.858;8.768;2023-05-12T00:43:28;98946.78;;;14.85;62.48
6506;BME280;3286;49.858;8.768;2023-05-12T00:45:57;98938.31;;;14.97;61.97
6506;BME280;3286;49.858;8.768;2023-05-12T00:48:24;98939.91;;;14.91;62.32
6506;BME280;3286;49.858;8.768;2023-05-12T00:50:51;98939.97;;;14.83;63.04
6506;BME280;3286;49.858;8.768;2023-05-12T00:53:19;98941.72;;;14.75;62.99
6506;BME280;3286;49.858;8.768;2023-05-12T00:55:46;98938.25;;;14.75;62.69
6506;BME280;3286;49.858;8.768;2023-05-12T00:58:13;98929.06;;;14.92;62.71
6506;BME280;3286;49.858;8.768;2023-05-12T01:00:39;98934.03;;;14.81;62.55
6506;BME280;3286;49.858;8.768;2023-05-12T01:03:07;98937.78;;;15.01;62.21
6506;BME280;3286;49.858;8.768;2023-05-12T01:05:37;98929.53;;;14.96;62.25
6506;BME280;3286;49.858;8.768;2023-05-12T01:08:06;98934.31;;;14.71;63.13
6506;BME280;3286;49.858;8.768;2023-05-12T01:10:34;98939.94;;;15.49;60.72
6506;BME280;3286;49.858;8.768;2023-05-12T01:13:01;98933.84;;;14.97;61.90
6506;BME280;3286;49.858;8.768;2023-05-12T01:15:30;98934.28;;;14.86;62.20
6506;BME280;3286;49.858;8.768;2023-05-12T01:18:01;98932.28;;;14.88;62.55
6506;BME280;3286;49.858;8.768;2023-05-12T01:20:32;98931.72;;;14.77;62.55
6506;BME280;3286;49.858;8.768;2023-05-12T01:22:59;98931.44;;;14.57;63.54
6506;BME280;3286;49.858;8.768;2023-05-12T01:25:30;98939.97;;;14.98;62.57
6506;BME280;3286;49.858;8.768;2023-05-12T01:27:59;98938.44;;;14.88;62.30
6506;BME280;3286;49.858;8.768;2023-05-12T01:30:27;98936.63;;;14.74;63.29
6506;BME280;3286;49.858;8.768;2023-05-12T01:32:55;98942.31;;;14.47;63.81
6506;BME280;3286;49.858;8.768;2023-05-12T01:35:21;98940.63;;;14.55;63.57
6506;BME280;3286;49.858;8.768;2023-05-12T01:37:48;98939.53;;;14.79;62.69
6506;BME280;3286;49.858;8.768;2023-05-12T01:40:16;98941.19;;;14.95;61.91
6506;BME280;3286;49.858;8.768;2023-05-12T01:42:42;98938.16;;;14.98;61.72
6506;BME280;3286;49.858;8.768;2023-05-12T01:45:11;98945.00;;;14.62;63.60
6506;BME280;3286;49.858;8.768;2023-05-12T01:47:37;98944.19;;;14.62;63.47
6506;BME280;3286;49.858;8.768;2023-05-12T01:50:04;98946.47;;;15.10;61.77
6506;BME280;3286;49.858;8.768;2023-05-12T01:52:31;98945.66;;;14.95;62.20
6506;BME280;3286;49.858;8.768;2023-05-12T01:54:57;98951.47;;;14.83;62.85
6506;BME280;3286;49.858;8.768;2023-05-12T01:57:24;98943.19;;;14.93;62.31
6506;BME280;3286;49.858;8.768;2023-05-12T01:59:51;98943.66;;;14.82;63.11
6506;BME280;3286;49.858;8.768;2023-05-12T02:02:18;98947.00;;;15.20;61.64
6506;BME280;3286;49.858;8.768;2023-05-12T02:04:45;98949.84;;;15.19;61.76
6506;BME280;3286;49.858;8.768;2023-05-12T02:07:12;98957.66;;;15.05;61.61
6506;BME280;3286;49.858;8.768;2023-05-12T02:09:39;98945.22;;;14.76;62.85
6506;BME280;3286;49.858;8.768;2023-05-12T02:12:07;98950.44;;;14.99;61.90
6506;BME280;3286;49.858;8.768;2023-05-12T02:14:33;98952.84;;;15.31;61.80
6506;BME280;3286;49.858;8.768;2023-05-12T02:17:00;98959.81;;;14.80;62.96
6506;BME280;3286;49.858;8.768;2023-05-12T02:19:28;98961.34;;;15.04;62.27
6506;BME280;3286;49.858;8.768;2023-05-12T02:21:54;98961.16;;;14.61;64.11
6506;BME280;3286;49.858;8.768;2023-05-12T02:24:21;98960.78;;;14.64;63.97
6506;BME280;3286;49.858;8.768;2023-05-12T02:26:48;98955.66;;;14.77;63.49
6506;BME280;3286;49.858;8.768;2023-05-12T02:29:14;98961.31;;;15.19;62.31
6506;BME280;3286;49.858;8.768;2023-05-12T02:31:41;98958.03;;;15.02;62.35
6506;BME280;3286;49.858;8.768;2023-05-12T02:34:07;98958.84;;;14.58;63.86
6506;BME280;3286;49.858;8.768;2023-05-12T02:36:35;98966.50;;;14.76;63.78
6506;BME280;3286;49.858;8.768;2023-05-12T02:39:02;98954.19;;;14.60;63.21
6506;BME280;3286;49.858;8.768;2023-05-12T02:41:29;98960.94;;;14.62;63.10
6506;BME280;3286;49.858;8.768;2023-05-12T02:43:56;98963.38;;;14.72;62.81
6506;BME280;3286;49.858;8.768;2023-05-12T02:46:23;98962.19;;;14.75;63.02
6506;BME280;3286;49.858;8.768;2023-05-12T02:48:49;98949.97;;;14.96;62.60
6506;BME280;3286;49.858;8.768;2023-05-12T02:51:16;98956.78;;;14.98;62.32
6506;BME280;3286;49.858;8.768;2023-05-12T02:53:44;98953.09;;;14.84;62.70
6506;BME280;3286;49.858;8.768;2023-05-12T02:56:11;98949.53;;;14.77;63.10
6506;BME280;3286;49.858;8.768;2023-05-12T02:58:37;98956.41;;;14.86;62.31
6506;BME280;3286;49.858;8.768;2023-05-12T03:01:04;98949.41;;;14.55;63.78
6506;BME280;3286;49.858;8.768;2023-05-12T03:03:31;98956.44;;;14.48;64.13
6506;BME280;3286;49.858;8.768;2023-05-12T03:05:57;98956.50;;;14.78;62.72
6506;BME280;3286;49.858;8.768;2023-05-12T03:08:24;98950.72;;;14.74;62.98
6506;BME280;3286;49.858;8.768;2023-05-12T03:10:52;98957.97;;;14.81;62.70
6506;BME280;3286;49.858;8.768;2023-05-12T03:13:19;98956.31;;;14.80;62.26
6506;BME280;3286;49.858;8.768;2023-05-12T03:15:45;98957.78;;;14.82;62.17
6506;BME280;3286;49.858;8.768;2023-05-12T03:18:12;98966.31;;;14.92;61.78
6506;BME280;3286;49.858;8.768;2023-05-12T03:20:39;98959.16;;;14.78;62.81
6506;BME280;3286;49.858;8.768;2023-05-12T03:23:05;98964.22;;;14.73;62.53
6506;BME280;3286;49.858;8.768;2023-05-12T03:25:32;98965.75;;;14.82;62.77
6506;BME280;3286;49.858;8.768;2023-05-12T03:28:00;98956.31;;;14.95;62.06
6506;BME280;3286;49.858;8.768;2023-05-12T03:30:27;98966.25;;;14.47;63.42
6506;BME280;3286;49.858;8.768;2023-05-12T03:32:54;98956.56;;;14.85;62.22
6506;BME280;3286;49.858;8.768;2023-05-12T03:35:20;98961.34;;;14.74;62.96
6506;BME280;3286;49.858;8.768;2023-05-12T03:37:47;98963.78;;;14.46;64.20
6506;BME280;3286;49.858;8.768;2023-05-12T03:40:14;98957.69;;;14.75;63.19
6506;BME280;3286;49.858;8.768;2023-05-12T03:42:42;98957.97;;;14.81;62.41
6506;BME280;3286;49.858;8.768;2023-05-12T03:45:11;98953.56;;;14.73;62.36
6506;BME280;3286;49.858;8.768;2023-05-12T03:47:37;98956.13;;;15.11;61.69
6506;BME280;3286;49.858;8.768;2023-05-12T03:50:06;98961.78;;;15.08;61.44
6506;BME280;3286;49.858;8.768;2023-05-12T03:52:32;98957.59;;;14.84;62.22
6506;BME280;3286;49.858;8.768;2023-05-12T03:54:59;98953.69;;;15.31;60.32
6506;BME280;3286;49.858;8.768;2023-05-12T03:57:25;98944.66;;;14.81;62.29
6506;BME280;3286;49.858;8.768;2023-05-12T03:59:52;98950.72;;;14.89;62.00
6506;BME280;3286;49.858;8.768;2023-05-12T04:02:20;98953.28;;;14.83;62.18
6506;BME280;3286;49.858;8.768;2023-05-12T04:04:47;98961.63;;;14.80;62.28
6506;BME280;3286;49.858;8.768;2023-05-12T04:07:13;98956.78;;;14.83;62.00
6506;BME280;3286;49.858;8.768;2023-05-12T04:09:40;98963.84;;;14.76;62.75
6506;BME280;3286;49.858;8.768;2023-05-12T04:12:08;98954.94;;;14.84;61.89
6506;BME280;3286;49.858;8.768;2023-05-12T04:14:35;98964.78;;;14.45;63.43
6506;BME280;3286;49.858;8.768;2023-05-12T04:17:03;98963.91;;;14.98;61.92
6506;BME280;3286;49.858;8.768;2023-05-12T04:19:31;98961.09;;;14.84;62.15
6506;BME280;3286;49.858;8.768;2023-05-12T04:21:58;98962.09;;;14.83;61.89
6506;BME280;3286;49.858;8.768;2023-05-12T04:24:25;98965.66;;;14.75;62.23
6506;BME280;3286;49.858;8.768;2023-05-12T04:26:52;98966.56;;;14.98;61.70
6506;BME280;3286;49.858;8.768;2023-05-12T04:29:18;98969.75;;;14.63;63.09
6506;BME280;3286;49.858;8.768;2023-05-12T04:31:45;98960.88;;;14.86;62.45
6506;BME280;3286;49.858;8.768;2023-05-12T04:34:12;98976.66;;;14.72;62.68
6506;BME280;3286;49.858;8.768;2023-05-12T04:36:40;98969.69;;;14.86;62.65
6506;BME280;3286;49.858;8.768;2023-05-12T04:39:06;98977.03;;;14.84;62.32
6506;BME280;3286;49.858;8.768;2023-05-12T04:41:33;98973.28;;;14.78;62.50
6506;BME280;3286;49.858;8.768;2023-05-12T04:44:00;98971.19;;;14.74;62.84
6506;BME280;3286;49.858;8.768;2023-05-12T04:46:27;98973.91;;;14.96;61.67
6506;BME280;3286;49.858;8.768;2023-05-12T04:48:53;98967.94;;;14.78;62.45
6506;BME280;3286;49.858;8.768;2023-05-12T04:51:20;98967.13;;;14.93;62.19
6506;BME280;3286;49.858;8.768;2023-05-12T04:53:48;98977.16;;;15.43;61.08
6506;BME280;3286;49.858;8.768;2023-05-12T04:56:15;98980.50;;;15.00;61.78
6506;BME280;3286;49.858;8.768;2023-05-12T04:58:41;98982.34;;;14.99;62.40
6506;BME280;3286;49.858;8.768;2023-05-12T05:01:08;98986.16;;;15.27;61.28
6506;BME280;3286;49.858;8.768;2023-05-12T05:03:36;98989.69;;;15.12;62.00
6506;BME280;3286;49.858;8.768;2023-05-12T05:06:03;98999.22;;;15.21;62.01
6506;BME280;3286;49.858;8.768;2023-05-12T05:08:29;98993.53;;;15.25;61.83
6506;BME280;3286;49.858;8.768;2023-05-12T05:10:57;98999.84;;;15.24;61.22
6506;BME280;3286;49.858;8.768;2023-05-12T05:13:24;99001.41;;;15.18;62.23
6506;BME280;3286;49.858;8.768;2023-05-12T05:15:51;98999.59;;;15.18;61.82
6506;BME280;3286;49.858;8.768;2023-05-12T05:18:18;99007.56;;;15.33;61.31
6506;BME280;3286;49.858;8.768;2023-05-12T05:20:44;99000.59;;;15.17;61.27
6506;BME280;3286;49.858;8.768;2023-05-12T05:23:11;99005.47;;;14.99;62.00
6506;BME280;3286;49.858;8.768;2023-05-12T05:25:38;99000.59;;;14.87;62.98
6506;BME280;3286;49.858;8.768;2023-05-12T05:28:06;99014.91;;;14.71;63.56
6506;BME280;3286;49.858;8.768;2023-05-12T05:30:32;99023.66;;;14.57;64.23
6506;BME280;3286;49.858;8.768;2023-05-12T05:32:59;99014.91;;;15.16;61.80
6506;BME280;3286;49.858;8.768;2023-05-12T05:35:26;99021.16;;;15.09;62.20
6506;BME280;3286;49.858;8.768;2023-05-12T05:37:53;99023.44;;;15.27;61.28
6506;BME280;3286;49.858;8.768;2023-05-12T05:40:19;99026.09;;;15.12;61.98
6506;BME280;3286;49.858;8.768;2023-05-12T05:42:46;99022.25;;;15.14;62.07
6506;BME280;3286;49.858;8.768;2023-05-12T05:45:14;99019.22;;;15.32;61.51
6506;BME280;3286;49.858;8.768;2023-05-12T05:47:40;99024.25;;;15.27;62.00
6506;BME280;3286;49.858;8.768;2023-05-12T05:50:08;99027.00;;;15.34;61.70
6506;BME280;3286;49.858;8.768;2023-05-12T05:52:34;99030.97;;;14.93;62.27
6506;BME280;3286;49.858;8.768;2023-05-12T05:55:01;99027.09;;;14.96;62.50
6506;BME280;3286;49.858;8.768;2023-05-12T05:57:28;99028.84;;;14.73;63.25
6506;BME280;3286;49.858;8.768;2023-05-12T05:59:54;99032.84;;;15.44;62.03
6506;BME280;3286;49.858;8.768;2023-05-12T06:02:22;99025.94;;;14.98;63.00
6506;BME280;3286;49.858;8.768;2023-05-12T06:04:49;99034.97;;;14.89;63.16
6506;BME280;3286;49.858;8.768;2023-05-12T06:07:17;99034.63;;;15.07;62.33
6506;BME280;3286;49.858;8.768;2023-05-12T06:09:44;99036.00;;;15.03;62.80
6506;BME280;3286;49.858;8.768;2023-05-12T06:12:11;99022.78;;;14.95;63.14
6506;BME280;3286;49.858;8.768;2023-05-12T06:14:37;99027.38;;;15.31;62.52
6506;BME280;3286;49.858;8.768;2023-05-12T06:17:04;99032.75;;;15.53;61.47
6506;BME280;3286;49.858;8.768;2023-05-12T06:19:32;99036.03;;;16.06;60.41
6506;BME280;3286;49.858;8.768;2023-05-12T06:21:59;99044.16;;;15.83;61.44
6506;BME280;3286;49.858;8.768;2023-05-12T06:24:26;99051.28;;;15.61;62.57
6506;BME280;3286;49.858;8.768;2023-05-12T06:26:52;99052.44;;;15.88;62.29
6506;BME280;3286;49.858;8.768;2023-05-12T06:29:19;99051.94;;;15.85;61.33
6506;BME280;3286;49.858;8.768;2023-05-12T06:31:46;99050.31;;;15.69;62.36
6506;BME280;3286;49.858;8.768;2023-05-12T06:34:13;99062.16;;;15.96;61.12
6506;BME280;3286;49.858;8.768;2023-05-12T06:36:40;99052.50;;;16.17;60.66
6506;BME280;3286;49.858;8.768;2023-05-12T06:39:07;99064.91;;;15.88;61.67
6506;BME280;3286;49.858;8.768;2023-05-12T06:41:34;99066.41;;;15.75;62.03
6506;BME280;3286;49.858;8.768;2023-05-12T06:44:00;99065.03;;;16.16;60.89
6506;BME280;3286;49.858;8.768;2023-05-12T06:46:27;99070.66;;;16.06;60.34
6506;BME280;3286;49.858;8.768;2023-05-12T06:48:53;99063.09;;;15.88;61.33
6506;BME280;3286;49.858;8.768;2023-05-12T06:51:20;99072.69;;;14.92;62.96
6506;BME280;3286;49.858;8.768;2023-05-12T06:53:48;99076.81;;;14.80;62.77
6506;BME280;3286;49.858;8.768;2023-05-12T06:56:15;99067.19;;;14.94;63.18
6506;BME280;3286;49.858;8.768;2023-05-12T06:58:42;99063.44;;;15.33;62.19
6506;BME280;3286;49.858;8.768;2023-05-12T07:01:08;99071.59;;;15.84;60.74
6506;BME280;3286;49.858;8.768;2023-05-12T07:03:35;99072.81;;;15.14;62.26
6506;BME280;3286;49.858;8.768;2023-05-12T07:06:01;99072.72;;;15.23;61.10
6506;BME280;3286;49.858;8.768;2023-05-12T07:08:28;99077.53;;;14.89;61.58
6506;BME280;3286;49.858;8.768;2023-05-12T07:10:58;99068.31;;;15.82;61.00
6506;BME280;3286;49.858;8.768;2023-05-12T07:13:25;99066.34;;;15.54;61.65
6506;BME280;3286;49.858;8.768;2023-05-12T07:15:52;99078.28;;;15.13;60.88
6506;BME280;3286;49.858;8.768;2023-05-12T07:18:18;99071.13;;;15.28;61.26
6506;BME280;3286;49.858;8.768;2023-05-12T07:20:45;99070.44;;;15.71;59.86
6506;BME280;3286;49.858;8.768;2023-05-12T07:23:12;99067.28;;;15.46;60.36
6506;BME280;3286;49.858;8.768;2023-05-12T07:25:38;99070.75;;;15.46;60.55
6506;BME280;3286;49.858;8.768;2023-05-12T07:28:06;99074.03;;;15.63;60.31
6506;BME280;3286;49.858;8.768;2023-05-12T07:30:33;99080.34;;;15.92;59.42
6506;BME280;3286;49.858;8.768;2023-05-12T07:32:59;99077.09;;;16.12;59.05
6506;BME280;3286;49.858;8.768;2023-05-12T07:35:26;99081.63;;;15.82;60.29
6506;BME280;3286;49.858;8.768;2023-05-12T07:37:53;99084.63;;;15.57;61.19
6506;BME280;3286;49.858;8.768;2023-05-12T07:40:19;99088.22;;;16.01;59.96
6506;BME280;3286;49.858;8.768;2023-05-12T07:42:46;99079.66;;;15.54;61.66
6506;BME280;3286;49.858;8.768;2023-05-12T07:45:14;99083.16;;;15.54;60.77
6506;BME280;3286;49.858;8.768;2023-05-12T07:47:47;99083.75;;;15.71;60.59
6506;BME280;3286;49.858;8.768;2023-05-12T07:50:14;99088.03;;;15.50;61.77
6506;BME280;3286;49.858;8.768;2023-05-12T07:52:45;99082.03;;;15.63;61.32
6506;BME280;3286;49.858;8.768;2023-05-12T07:55:12;99067.91;;;16.00;60.32
6506;BME280;3286;49.858;8.768;2023-05-12T07:57:39;99084.91;;;15.84;60.49
6506;BME280;3286;49.858;8.768;2023-05-12T08:00:07;99088.75;;;15.29;61.34
6506;BME280;3286;49.858;8.768;2023-05-12T08:02:37;99090.00;;;15.63;60.95
6506;BME280;3286;49.858;8.768;2023-05-12T08:05:04;99086.66;;;15.55;61.10
6506;BME280;3286;49.858;8.768;2023-05-12T08:07:31;99084.78;;;16.07;59.63
6506;BME280;3286;49.858;8.768;2023-05-12T08:09:58;99082.63;;;15.96;60.25
6506;BME280;3286;49.858;8.768;2023-05-12T08:12:24;99081.19;;;15.78;60.83
6506;BME280;3286;49.858;8.768;2023-05-12T08:14:51;99077.69;;;15.92;60.47
6506;BME280;3286;49.858;8.768;2023-05-12T08:17:18;99077.75;;;15.99;59.98
6506;BME280;3286;49.858;8.768;2023-05-12T08:19:46;99078.53;;;15.93;60.42
6506;BME280;3286;49.858;8.768;2023-05-12T08:22:12;99077.00;;;16.49;58.80
6506;BME280;3286;49.858;8.768;2023-05-12T08:24:39;99071.28;;;16.52;58.45
6506;BME280;3286;49.858;8.768;2023-05-12T08:27:05;99068.22;;;16.55;58.83
6506;BME280;3286;49.858;8.768;2023-05-12T08:29:32;99075.22;;;17.13;57.26
6506;BME280;3286;49.858;8.768;2023-05-12T08:31:59;99069.06;;;17.13;56.61
6506;BME280;3286;49.858;8.768;2023-05-12T08:34:26;99070.47;;;17.50;56.07
6506;BME280;3286;49.858;8.768;2023-05-12T08:36:54;99069.09;;;16.91;58.83
6506;BME280;3286;49.858;8.768;2023-05-12T08:39:21;99071.41;;;16.94;58.35
6506;BME280;3286;49.858;8.768;2023-05-12T08:41:51;99076.34;;;17.26;57.18
6506;BME280;3286;49.858;8.768;2023-05-12T08:44:21;99070.31;;;16.88;57.13
6506;BME280;3286;49.858;8.768;2023-05-12T08:46:50;99071.03;;;16.47;57.20
6506;BME280;3286;49.858;8.768;2023-05-12T08:49:19;99076.16;;;16.99;56.93
6506;BME280;3286;49.858;8.768;2023-05-12T08:51:47;99071.50;;;17.07;56.07
6506;BME280;3286;49.858;8.768;2023-05-12T08:54:16;99074.78;;;17.45;54.65
6506;BME280;3286;49.858;8.768;2023-05-12T08:56:44;99076.97;;;17.28;55.75
6506;BME280;3286;49.858;8.768;2023-05-12T08:59:12;99081.84;;;17.24;54.82
6506;BME280;3286;49.858;8.768;2023-05-12T09:01:39;99081.31;;;17.00;55.34
6506;BME280;3286;49.858;8.768;2023-05-12T09:04:07;99088.56;;;17.13;55.63
6506;BME280;3286;49.858;8.768;2023-05-12T09:06:34;99091.50;;;16.97;55.93
6506;BME280;3286;49.858;8.768;2023-05-12T09:09:01;99078.31;;;16.88;55.58
6506;BME280;3286;49.858;8.768;2023-05-12T09:11:29;99082.25;;;16.92;55.89
6506;BME280;3286;49.858;8.768;2023-05-12T09:13:59;99088.59;;;16.91;56.59
6506;BME280;3286;49.858;8.768;2023-05-12T09:16:29;99085.41;;;16.74;57.03
6506;BME280;3286;49.858;8.768;2023-05-12T09:18:57;99079.28;;;16.80;55.97
6506;BME280;3286;49.858;8.768;2023-05-12T09:21:26;99082.63;;;15.96;57.90
6506;BME280;3286;49.858;8.768;2023-05-12T09:23:56;99086.47;;;16.80;56.65
6506;BME280;3286;49.858;8.768;2023-05-12T09:26:24;99077.66;;;17.08;55.41
6506;BME280;3286;49.858;8.768;2023-05-12T09:28:53;99086.03;;;16.76;56.84
6506;BME280;3286;49.858;8.768;2023-05-12T09:31:21;99079.53;;;16.86;56.66
6506;BME280;3286;49.858;8.768;2023-05-12T09:33:48;99089.00;;;16.60;56.62
6506;BME280;3286;49.858;8.768;2023-05-12T09:36:18;99083.03;;;17.15;55.82
6506;BME280;3286;49.858;8.768;2023-05-12T09:38:45;99085.56;;;16.94;55.84
6506;BME280;3286;49.858;8.768;2023-05-12T09:41:12;99085.00;;;16.99;56.19
6506;BME280;3286;49.858;8.768;2023-05-12T09:43:43;99080.84;;;17.25;55.74
6506;BME280;3286;49.858;8.768;2023-05-12T09:46:12;99083.91;;;17.22;55.84
6506;BME280;3286;49.858;8.768;2023-05-12T09:48:39;99080.94;;;17.38;55.35
6506;BME280;3286;49.858;8.768;2023-05-12T09:51:08;99086.78;;;17.27;56.00
6506;BME280;3286;49.858;8.768;2023-05-12T09:53:40;99076.00;;;17.42;55.63
6506;BME280;3286;49.858;8.768;2023-05-12T09:56:08;99074.88;;;17.65;55.38
6506;BME280;3286;49.858;8.768;2023-05-12T09:58:35;99086.88;;;17.89;54.62
6506;BME280;3286;49.858;8.768;2023-05-12T10:01:04;99087.81;;;18.57;52.31
6506;BME280;3286;49.858;8.768;2023-05-12T10:03:33;99086.16;;;18.29;54.06
6506;BME280;3286;49.858;8.768;2023-05-12T10:06:02;99087.63;;;18.52;53.24
6506;BME280;3286;49.858;8.768;2023-05-12T10:08:33;99079.81;;;18.64;52.06
6506;BME280;3286;49.858;8.768;2023-05-12T10:11:04;99085.16;;;18.64;52.78
6506;BME280;3286;49.858;8.768;2023-05-12T10:13:31;99086.19;;;18.63;52.28
6506;BME280;3286;49.858;8.768;2023-05-12T10:15:59;99083.19;;;17.97;54.06
6506;BME280;3286;49.858;8.768;2023-05-12T10:18:26;99081.19;;;18.13;52.37
6506;BME280;3286;49.858;8.768;2023-05-12T10:20:55;99079.53;;;18.05;53.91
6506;BME280;3286;49.858;8.768;2023-05-12T10:23:22;99083.50;;;17.67;54.63
6506;BME280;3286;49.858;8.768;2023-05-12T10:25:52;99082.69;;;17.73;53.36
6506;BME280;3286;49.858;8.768;2023-05-12T10:28:22;99086.81;;;18.45;52.91
6506;BME280;3286;49.858;8.768;2023-05-12T10:30:49;99081.66;;;18.77;51.96
6506;BME280;3286;49.858;8.768;2023-05-12T10:33:17;99080.00;;;18.69;52.09
6506;BME280;3286;49.858;8.768;2023-05-12T10:35:44;99078.94;;;18.09;53.67
6506;BME280;3286;49.858;8.768;2023-05-12T10:38:14;99082.63;;;18.08;54.54
6506;BME280;3286;49.858;8.768;2023-05-12T10:40:50;99076.16;;;17.83;55.26
6506;BME280;3286;49.858;8.768;2023-05-12T10:43:23;99093.50;;;18.00;54.32
6506;BME280;3286;49.858;8.768;2023-05-12T10:46:07;99087.38;;;18.06;53.58
6506;BME280;3286;49.858;8.768;2023-05-12T10:48:35;99090.41;;;17.13;54.32
6506;BME280;3286;49.858;8.768;2023-05-12T10:51:09;99089.75;;;16.32;55.14
6506;BME280;3286;49.858;8.768;2023-05-12T10:53:38;99090.41;;;16.34;57.05
6506;BME280;3286;49.858;8.768;2023-05-12T10:56:05;99094.81;;;16.70;56.44
6506;BME280;3286;49.858;8.768;2023-05-12T10:58:33;99094.81;;;16.70;55.23
6506;BME280;3286;49.858;8.768;2023-05-12T11:01:04;99093.72;;;16.64;55.71
6506;BME280;3286;49.858;8.768;2023-05-12T11:03:31;99090.19;;;16.57;55.62
6506;BME280;3286;49.858;8.768;2023-05-12T11:06:00;99096.38;;;16.58;56.46
6506;BME280;3286;49.858;8.768;2023-05-12T11:08:26;99096.53;;;16.56;56.25
6506;BME280;3286;49.858;8.768;2023-05-12T11:10:54;99093.75;;;16.93;55.77
6506;BME280;3286;49.858;8.768;2023-05-12T11:13:21;99095.13;;;17.11;55.09
6506;BME280;3286;49.858;8.768;2023-05-12T11:15:49;99094.91;;;17.05;55.07
6506;BME280;3286;49.858;8.768;2023-05-12T11:18:19;99090.13;;;17.36;54.65
6506;BME280;3286;49.858;8.768;2023-05-12T11:20:46;99088.81;;;17.18;54.72
6506;BME280;3286;49.858;8.768;2023-05-12T11:23:22;99085.94;;;17.20;53.65
6506;BME280;3286;49.858;8.768;2023-05-12T11:25:51;99090.38;;;17.06;55.08
6506;BME280;3286;49.858;8.768;2023-05-12T11:28:19;99092.00;;;17.84;53.42
6506;BME280;3286;49.858;8.768;2023-05-12T11:30:50;99093.72;;;18.12;52.08
6506;BME280;3286;49.858;8.768;2023-05-12T11:33:18;99103.53;;;17.49;53.28
6506;BME280;3286;49.858;8.768;2023-05-12T11:35:46;99091.31;;;18.17;52.48
6506;BME280;3286;49.858;8.768;2023-05-12T11:38:14;99097.06;;;18.28;52.56
6506;BME280;3286;49.858;8.768;2023-05-12T11:40:41;99091.31;;;18.31;52.70
6506;BME280;3286;49.858;8.768;2023-05-12T11:43:09;99089.69;;;18.63;52.66
6506;BME280;3286;49.858;8.768;2023-05-12T11:45:37;99090.91;;;18.47;53.15
6506;BME280;3286;49.858;8.768;2023-05-12T11:48:05;99093.16;;;18.50;52.33
6506;BME280;3286;49.858;8.768;2023-05-12T11:50:33;99089.88;;;18.75;52.32
6506;BME280;3286;49.858;8.768;2023-05-12T11:53:01;99090.28;;;18.65;51.36
6506;BME280;3286;49.858;8.768;2023-05-12T11:55:28;99087.22;;;18.55;52.47
6506;BME280;3286;49.858;8.768;2023-05-12T11:57:57;99094.19;;;18.22;53.47
6506;BME280;3286;49.858;8.768;2023-05-12T12:00:32;99094.84;;;17.83;53.01
6506;BME280;3286;49.858;8.768;2023-05-12T12:03:08;99098.53;;;17.33;53.63
6506;BME280;3286;49.858;8.768;2023-05-12T12:05:35;99098.94;;;17.30;53.00
6506;BME280;3286;49.858;8.768;2023-05-12T12:08:10;99105.00;;;18.01;52.56
6506;BME280;3286;49.858;8.768;2023-05-12T12:10:38;99108.94;;;17.56;52.78
6506;BME280;3286;49.858;8.768;2023-05-12T12:13:05;99111.03;;;18.16;51.03
6506;BME280;3286;49.858;8.768;2023-05-12T12:15:31;99109.38;;;17.60;51.41
6506;BME280;3286;49.858;8.768;2023-05-12T12:17:58;99113.91;;;17.66;52.99
6506;BME280;3286;49.858;8.768;2023-05-12T12:20:26;99113.69;;;16.97;53.53
6506;BME280;3286;49.858;8.768;2023-05-12T12:22:53;99113.47;;;17.62;52.77
6506;BME280;3286;49.858;8.768;2023-05-12T12:25:19;99115.13;;;16.71;53.86
6506;BME280;3286;49.858;8.768;2023-05-12T12:27:47;99118.44;;;16.73;54.06
6506;BME280;3286;49.858;8.768;2023-05-12T12:30:14;99124.34;;;17.19;54.01
6506;BME280;3286;49.858;8.768;2023-05-12T12:32:42;99122.97;;;16.73;53.81
6506;BME280;3286;49.858;8.768;2023-05-12T12:35:09;99124.81;;;17.01;53.60
6506;BME280;3286;49.858;8.768;2023-05-12T12:37:38;99132.50;;;17.46;52.74
6506;BME280;3286;49.858;8.768;2023-05-12T12:40:06;99130.16;;;17.01;53.79
6506;BME280;3286;49.858;8.768;2023-05-12T12:42:34;99134.28;;;16.82;53.84
6506;BME280;3286;49.858;8.768;2023-05-12T12:45:02;99138.03;;;16.87;54.38
6506;BME280;3286;49.858;8.768;2023-05-12T12:47:29;99139.16;;;17.63;53.18
6506;BME280;3286;49.858;8.768;2023-05-12T12:49:55;99140.94;;;16.05;54.53
6506;BME280;3286;49.858;8.768;2023-05-12T12:52:23;99136.97;;;17.03;52.66
6506;BME280;3286;49.858;8.768;2023-05-12T12:54:51;99138.84;;;17.09;52.23
6506;BME280;3286;49.858;8.768;2023-05-12T12:57:17;99124.00;;;17.00;53.39
6506;BME280;3286;49.858;8.768;2023-05-12T12:59:46;99132.63;;;17.66;51.30
6506;BME280;3286;49.858;8.768;2023-05-12T13:02:13;99137.13;;;18.07;50.79
6506;BME280;3286;49.858;8.768;2023-05-12T13:04:41;99136.41;;;17.92;51.78
6506;BME280;3286;49.858;8.768;2023-05-12T13:07:07;99129.78;;;17.74;52.39
6506;BME280;3286;49.858;8.768;2023-05-12T13:09:34;99134.72;;;17.07;52.48
6506;BME280;3286;49.858;8.768;2023-05-12T13:12:02;99142.31;;;16.60;53.35
6506;BME280;3286;49.858;8.768;2023-05-12T13:14:29;99136.13;;;16.53;54.10
6506;BME280;3286;49.858;8.768;2023-05-12T13:16:56;99136.06;;;16.96;53.31
6506;BME280;3286;49.858;8.768;2023-05-12T13:19:23;99132.69;;;17.09;52.43
6506;BME280;3286;49.858;8.768;2023-05-12T13:21:49;99134.16;;;16.90;52.78
6506;BME280;3286;49.858;8.768;2023-05-12T13:24:16;99132.91;;;17.43;52.55